sensor_id;sensor_type;location;lat;lon;timestamp;pressure;altitude;pressure_sealevel;temperature;humidity
13314;BME280;6725;48.112;11.604;2023-11-21T00:00:53;94371.06;;;7.33;100.00
13314;BME280;6725;48.112;11.604;2023-11-21T00:03:18;94350.88;;;7.34;100.00
13314;BME280;6725;48.112;11.604;2023-11-21T00:05:44;94308.94;;;7.35;100.00
13314;BME280;6725;48.112;11.604;2023-11-21T00:08:29;94266.69;;;7.34;100.00
13314;BME280;6725;48.112;11.604;2023-11-21T00:10:55;94208.94;;;7.30;100.00
13314;BME280;6725;48.112;11.604;2023-11-21T00:13:20;94171.75;;;7.27;100.00
13314;BME280;6725;48.112;11.604;2023-11-21T00:15:46;94125.25;;;7.25;100.00
13314;BME280;6725;48.112;11.604;2023-11-21T00:18:11;94081.50;;;7.20;100.00
13314;BME280;6725;48.112;11.604;2023-11-21T00:20:36;94046.28;;;7.16;100.00
13314;BME280;6725;48.112;11.604;2023-11-21T00:23:02;94016.84;;;7.15;100.00
13314;BME280;6725;48.112;11.604;2023-11-21T00:25:27;94008.69;;;7.15;100.00
13314;BME280;6725;48.112;11.604;2023-11-21T00:27:53;93991.78;;;7.07;100.00
13314;BME280;6725;48.112;11.604;2023-11-21T00:30:19;93992.63;;;7.04;100.00
13314;BME280;6725;48.112;11.604;2023-11-21T00:32:45;93986.81;;;7.02;100.00
13314;BME280;6725;48.112;11.604;2023-11-21T00:35:10;93994.63;;;7.00;100.00
13314;BME280;6725;48.112;11.604;2023-11-21T00:37:36;93978.34;;;7.00;100.00
13314;BME280;6725;48.112;11.604;2023-11-21T00:40:02;93972.91;;;7.00;100.00
13314;BME280;6725;48.112;11.604;2023-11-21T00:42:30;93954.69;;;7.01;100.00
13314;BME280;6725;48.112;11.604;2023-11-21T00:44:59;93935.69;;;7.01;100.00
13314;BME280;6725;48.112;11.604;2023-11-21T00:47:24;93910.94;;;6.99;100.00
13314;BME280;6725;48.112;11.604;2023-11-21T00:49:49;93894.69;;;6.95;100.00
13314;BME280;6725;48.112;11.604;2023-11-21T00:52:15;93895.53;;;6.92;100.00
13314;BME280;6725;48.112;11.604;2023-11-21T00:54:41;93882.81;;;6.89;100.00
13314;BME280;6725;48.112;11.604;2023-11-21T00:57:06;93878.53;;;6.88;100.00
13314;BME280;6725;48.112;11.604;2023-11-21T00:59:33;93883.28;;;6.84;100.00
13314;BME280;6725;48.112;11.604;2023-11-21T01:01:59;93880.22;;;6.82;100.00
13314;BME280;6725;48.112;11.604;2023-11-21T01:04:26;93881.84;;;6.79;100.00
13314;BME280;6725;48.112;11.604;2023-11-21T01:06:52;93877.97;;;6.77;100.00
13314;BME280;6725;48.112;11.604;2023-11-21T01:09:17;93873.41;;;6.74;100.00
13314;BME280;6725;48.112;11.604;2023-11-21T01:11:43;93876.59;;;6.69;100.00
13314;BME280;6725;48.112;11.604;2023-11-21T01:14:09;93875.84;;;6.68;100.00
13314;BME280;6725;48.112;11.604;2023-11-21T01:16:35;93877.41;;;6.66;100.00
13314;BME280;6725;48.112;11.604;2023-11-21T01:19:00;93874.38;;;6.64;100.00
13314;BME280;6725;48.112;11.604;2023-11-21T01:21:26;93866.69;;;6.59;100.00
13314;BME280;6725;48.112;11.604;2023-11-21T01:23:53;93858.22;;;6.57;100.00
13314;BME280;6725;48.112;11.604;2023-11-21T01:26:18;93848.97;;;6.54;100.00
13314;BME280;6725;48.112;11.604;2023-11-21T01:28:43;93854.44;;;6.51;100.00
13314;BME280;6725;48.112;11.604;2023-11-21T01:31:09;93849.03;;;6.51;100.00
13314;BME280;6725;48.112;11.604;2023-11-21T01:33:34;93838.25;;;6.47;100.00
13314;BME280;6725;48.112;11.604;2023-11-21T01:35:59;93846.44;;;6.44;100.00
13314;BME280;6725;48.112;11.604;2023-11-21T01:38:25;93849.63;;;6.39;100.00
13314;BME280;6725;48.112;11.604;2023-11-21T01:40:50;93846.97;;;6.35;100.00
13314;BME280;6725;48.112;11.604;2023-11-21T01:43:16;93846.25;;;6.31;100.00
13314;BME280;6725;48.112;11.604;2023-11-21T01:45:42;93852.47;;;6.32;100.00
13314;BME280;6725;48.112;11.604;2023-11-21T01:48:08;93843.22;;;6.29;100.00
13314;BME280;6725;48.112;11.604;2023-11-21T01:50:33;93833.97;;;6.27;100.00
13314;BME280;6725;48.112;11.604;2023-11-21T01:52:59;93833.97;;;6.27;100.00
13314;BME280;6725;48.112;11.604;2023-11-21T01:55:25;93830.06;;;6.28;100.00
13314;BME280;6725;48.112;11.604;2023-11-21T01:57:52;93836.19;;;6.32;100.00
13314;BME280;6725;48.112;11.604;2023-11-21T02:00:18;93837.38;;;6.31;100.00
13314;BME280;6725;48.112;11.604;2023-11-21T02:02:48;93839.28;;;6.34;100.00
13314;BME280;6725;48.112;11.604;2023-11-21T02:05:18;93849.63;;;6.39;100.00
13314;BME280;6725;48.112;11.604;2023-11-21T02:07:44;93848.44;;;6.40;100.00
13314;BME280;6725;48.112;11.604;2023-11-21T02:10:10;93860.84;;;6.41;100.00
13314;BME280;6725;48.112;11.604;2023-11-21T02:12:40;93869.31;;;6.43;100.00
13314;BME280;6725;48.112;11.604;2023-11-21T02:15:06;93859.16;;;6.47;100.00
13314;BME280;6725;48.112;11.604;2023-11-21T02:17:35;93863.06;;;6.46;100.00
13314;BME280;6725;48.112;11.604;2023-11-21T02:20:01;93863.41;;;6.48;100.00
13314;BME280;6725;48.112;11.604;2023-11-21T02:22:30;93864.94;;;6.49;100.00
13314;BME280;6725;48.112;11.604;2023-11-21T02:24:56;93863.75;;;6.50;100.00
13314;BME280;6725;48.112;11.604;2023-11-21T02:27:23;93867.53;;;6.56;100.00
13314;BME280;6725;48.112;11.604;2023-11-21T02:29:48;93867.06;;;6.61;100.00
13314;BME280;6725;48.112;11.604;2023-11-21T02:32:14;93875.59;;;6.59;100.00
13314;BME280;6725;48.112;11.604;2023-11-21T02:34:39;93872.06;;;6.62;100.00
13314;BME280;6725;48.112;11.604;2023-11-21T02:37:05;93877.47;;;6.62;100.00
13314;BME280;6725;48.112;11.604;2023-11-21T02:39:31;93882.50;;;6.64;100.00
13314;BME280;6725;48.112;11.604;2023-11-21T02:41:57;93870.47;;;6.65;100.00
13314;BME280;6725;48.112;11.604;2023-11-21T02:44:22;93878.09;;;6.70;100.00
13314;BME280;6725;48.112;11.604;2023-11-21T02:46:47;93871.13;;;6.72;100.00
13314;BME280;6725;48.112;11.604;2023-11-21T02:49:13;93868.00;;;6.74;100.00
13314;BME280;6725;48.112;11.604;2023-11-21T02:51:38;93867.91;;;6.77;100.00
13314;BME280;6725;48.112;11.604;2023-11-21T02:54:04;93864.09;;;6.75;100.00
13314;BME280;6725;48.112;11.604;2023-11-21T02:56:32;93854.06;;;6.72;100.00
13314;BME280;6725;48.112;11.604;2023-11-21T02:58:59;93855.59;;;6.73;100.00
13314;BME280;6725;48.112;11.604;2023-11-21T03:01:25;93847.13;;;6.71;100.00
13314;BME280;6725;48.112;11.604;2023-11-21T03:03:50;93841.31;;;6.69;100.00
13314;BME280;6725;48.112;11.604;2023-11-21T03:06:20;93835.56;;;6.67;100.00
13314;BME280;6725;48.112;11.604;2023-11-21T03:08:46;93833.31;;;6.62;100.00
13314;BME280;6725;48.112;11.604;2023-11-21T03:11:12;93839.16;;;6.60;100.00
13314;BME280;6725;48.112;11.604;2023-11-21T03:13:41;93849.66;;;6.58;100.00
13314;BME280;6725;48.112;11.604;2023-11-21T03:16:10;93826.00;;;6.59;100.00
13314;BME280;6725;48.112;11.604;2023-11-21T03:18:37;93829.56;;;6.56;100.00
13314;BME280;6725;48.112;11.604;2023-11-21T03:21:03;93836.16;;;6.55;100.00
13314;BME280;6725;48.112;11.604;2023-11-21T03:23:29;93831.94;;;6.54;100.00
13314;BME280;6725;48.112;11.604;2023-11-21T03:25:54;93834.63;;;6.54;100.00
13314;BME280;6725;48.112;11.604;2023-11-21T03:28:20;93835.81;;;6.53;100.00
13314;BME280;6725;48.112;11.604;2023-11-21T03:30:45;93839.72;;;6.52;100.00
13314;BME280;6725;48.112;11.604;2023-11-21T03:33:10;93833.53;;;6.51;100.00
13314;BME280;6725;48.112;11.604;2023-11-21T03:35:36;93838.19;;;6.51;100.00
13314;BME280;6725;48.112;11.604;2023-11-21T03:38:01;93848.19;;;6.54;100.00
13314;BME280;6725;48.112;11.604;2023-11-21T03:40:27;93842.78;;;6.54;100.00
13314;BME280;6725;48.112;11.604;2023-11-21T03:42:52;93843.56;;;6.54;100.00
13314;BME280;6725;48.112;11.604;2023-11-21T03:45:17;93849.72;;;6.55;100.00
13314;BME280;6725;48.112;11.604;2023-11-21T03:47:43;93860.56;;;6.55;100.00
13314;BME280;6725;48.112;11.604;2023-11-21T03:50:08;93860.56;;;6.55;100.00
13314;BME280;6725;48.112;11.604;2023-11-21T03:52:34;93870.72;;;6.51;100.00
13314;BME280;6725;48.112;11.604;2023-11-21T03:55:00;93870.72;;;6.51;100.00
13314;BME280;6725;48.112;11.604;2023-11-21T03:57:26;93875.44;;;6.47;100.00
13314;BME280;6725;48.112;11.604;2023-11-21T03:59:53;93872.84;;;6.40;100.00
13314;BME280;6725;48.112;11.604;2023-11-21T04:02:18;93883.34;;;6.38;100.00
13314;BME280;6725;48.112;11.604;2023-11-21T04:04:44;93895.34;;;6.37;100.00
13314;BME280;6725;48.112;11.604;2023-11-21T04:07:09;93893.50;;;6.34;100.00
13314;BME280;6725;48.112;11.604;2023-11-21T04:09:34;93896.53;;;6.36;100.00
13314;BME280;6725;48.112;11.604;2023-11-21T04:12:01;93895.84;;;6.32;100.00
13314;BME280;6725;48.112;11.604;2023-11-21T04:14:26;93892.00;;;6.29;100.00
13314;BME280;6725;48.112;11.604;2023-11-21T04:16:52;93908.28;;;6.29;100.00
13314;BME280;6725;48.112;11.604;2023-11-21T04:19:18;93906.31;;;6.30;100.00
13314;BME280;6725;48.112;11.604;2023-11-21T04:21:44;93906.66;;;6.32;100.00
13314;BME280;6725;48.112;11.604;2023-11-21T04:24:09;93907.44;;;6.32;100.00
13314;BME280;6725;48.112;11.604;2023-11-21T04:26:35;93908.91;;;6.37;100.00
13314;BME280;6725;48.112;11.604;2023-11-21T04:29:01;93905.50;;;6.33;100.00
13314;BME280;6725;48.112;11.604;2023-11-21T04:31:26;93914.31;;;6.37;100.00
13314;BME280;6725;48.112;11.604;2023-11-21T04:33:52;93935.19;;;6.40;100.00
13314;BME280;6725;48.112;11.604;2023-11-21T04:36:17;93931.97;;;6.48;100.00
13314;BME280;6725;48.112;11.604;2023-11-21T04:38:42;93945.09;;;6.50;100.00
13314;BME280;6725;48.112;11.604;2023-11-21T04:41:09;93947.34;;;6.55;100.00
13314;BME280;6725;48.112;11.604;2023-11-21T04:43:34;93945.00;;;6.57;100.00
13314;BME280;6725;48.112;11.604;2023-11-21T04:45:59;93954.19;;;6.63;100.00
13314;BME280;6725;48.112;11.604;2023-11-21T04:48:25;93944.56;;;6.58;100.00
13314;BME280;6725;48.112;11.604;2023-11-21T04:50:51;93948.03;;;6.59;100.00
13314;BME280;6725;48.112;11.604;2023-11-21T04:53:17;93935.66;;;6.58;100.00
13314;BME280;6725;48.112;11.604;2023-11-21T04:55:43;93931.78;;;6.59;100.00
13314;BME280;6725;48.112;11.604;2023-11-21T04:58:09;93931.72;;;6.62;100.00
13314;BME280;6725;48.112;11.604;2023-11-21T05:00:36;93932.94;;;6.58;100.00
13314;BME280;6725;48.112;11.604;2023-11-21T05:03:02;93920.88;;;6.62;100.00
13314;BME280;6725;48.112;11.604;2023-11-21T05:05:28;93922.47;;;6.60;100.00
13314;BME280;6725;48.112;11.604;2023-11-21T05:07:55;93919.75;;;6.60;100.00
13314;BME280;6725;48.112;11.604;2023-11-21T05:10:20;93915.16;;;6.57;100.00
13314;BME280;6725;48.112;11.604;2023-11-21T05:12:45;93909.38;;;6.55;100.00
13314;BME280;6725;48.112;11.604;2023-11-21T05:15:14;93902.44;;;6.54;100.00
13314;BME280;6725;48.112;11.604;2023-11-21T05:17:40;93913.28;;;6.54;100.00
13314;BME280;6725;48.112;11.604;2023-11-21T05:20:32;93905.22;;;6.50;100.00
13314;BME280;6725;48.112;11.604;2023-11-21T05:22:58;93911.75;;;6.53;100.00
13314;BME280;6725;48.112;11.604;2023-11-21T05:25:24;93919.09;;;6.52;100.00
13314;BME280;6725;48.112;11.604;2023-11-21T05:27:49;93915.66;;;6.52;100.00
13314;BME280;6725;48.112;11.604;2023-11-21T05:30:14;93915.66;;;6.52;100.00
13314;BME280;6725;48.112;11.604;2023-11-21T05:32:40;93922.94;;;6.55;100.00
13314;BME280;6725;48.112;11.604;2023-11-21T05:35:09;93924.81;;;6.58;100.00
13314;BME280;6725;48.112;11.604;2023-11-21T05:37:38;93923.28;;;6.57;100.00
13314;BME280;6725;48.112;11.604;2023-11-21T05:40:07;93930.31;;;6.54;100.00
13314;BME280;6725;48.112;11.604;2023-11-21T05:42:34;93925.22;;;6.56;100.00
13314;BME280;6725;48.112;11.604;2023-11-21T05:44:59;93923.28;;;6.57;100.00
13314;BME280;6725;48.112;11.604;2023-11-21T05:47:38;93932.91;;;6.61;100.00
13314;BME280;6725;48.112;11.604;2023-11-21T05:50:06;93930.72;;;6.53;100.00
13314;BME280;6725;48.112;11.604;2023-11-21T05:52:31;93930.31;;;6.54;100.00
13314;BME280;6725;48.112;11.604;2023-11-21T05:54:58;93938.03;;;6.56;100.00
13314;BME280;6725;48.112;11.604;2023-11-21T05:57:23;93939.16;;;6.58;100.00
13314;BME280;6725;48.112;11.604;2023-11-21T05:59:48;93941.47;;;6.60;100.00
13314;BME280;6725;48.112;11.604;2023-11-21T06:02:14;93937.97;;;6.59;100.00
13314;BME280;6725;48.112;11.604;2023-11-21T06:04:39;93946.59;;;6.54;100.00
13314;BME280;6725;48.112;11.604;2023-11-21T06:07:04;93954.75;;;6.51;100.00
13314;BME280;6725;48.112;11.604;2023-11-21T06:09:30;93957.84;;;6.53;100.00
13314;BME280;6725;48.112;11.604;2023-11-21T06:11:55;93958.66;;;6.50;100.00
13314;BME280;6725;48.112;11.604;2023-11-21T06:14:20;93961.47;;;6.43;100.00
13314;BME280;6725;48.112;11.604;2023-11-21T06:16:47;93970.00;;;6.45;100.00
13314;BME280;6725;48.112;11.604;2023-11-21T06:19:12;93973.03;;;6.47;100.00
13314;BME280;6725;48.112;11.604;2023-11-21T06:21:37;93979.66;;;6.46;100.00
13314;BME280;6725;48.112;11.604;2023-11-21T06:24:04;93981.66;;;6.42;100.00
13314;BME280;6725;48.112;11.604;2023-11-21T06:26:29;93985.88;;;6.43;100.00
13314;BME280;6725;48.112;11.604;2023-11-21T06:28:54;93987.41;;;6.44;100.00
13314;BME280;6725;48.112;11.604;2023-11-21T06:31:20;93993.19;;;6.46;100.00
13314;BME280;6725;48.112;11.604;2023-11-21T06:33:46;93995.53;;;6.44;100.00
13314;BME280;6725;48.112;11.604;2023-11-21T06:36:12;94000.16;;;6.47;100.00
13314;BME280;6725;48.112;11.604;2023-11-21T06:38:37;94012.88;;;6.50;100.00
13314;BME280;6725;48.112;11.604;2023-11-21T06:41:03;94006.66;;;6.53;100.00
13314;BME280;6725;48.112;11.604;2023-11-21T06:43:29;94011.66;;;6.54;100.00
13314;BME280;6725;48.112;11.604;2023-11-21T06:45:56;94021.25;;;6.59;100.00
13314;BME280;6725;48.112;11.604;2023-11-21T06:48:22;94020.09;;;6.60;100.00
13314;BME280;6725;48.112;11.604;2023-11-21T06:50:47;94015.53;;;6.53;100.00
13314;BME280;6725;48.112;11.604;2023-11-21T06:53:32;94026.34;;;6.57;100.00
13314;BME280;6725;48.112;11.604;2023-11-21T06:55:57;94035.66;;;6.56;100.00
13314;BME280;6725;48.112;11.604;2023-11-21T06:58:23;94030.94;;;6.60;100.00
13314;BME280;6725;48.112;11.604;2023-11-21T07:00:48;94033.56;;;6.67;100.00
13314;BME280;6725;48.112;11.604;2023-11-21T07:03:15;94030.88;;;6.63;100.00
13314;BME280;6725;48.112;11.604;2023-11-21T07:05:41;94028.88;;;6.67;100.00
13314;BME280;6725;48.112;11.604;2023-11-21T07:08:06;94025.75;;;6.69;100.00
13314;BME280;6725;48.112;11.604;2023-11-21T07:10:32;94022.22;;;6.72;100.00
13314;BME280;6725;48.112;11.604;2023-11-21T07:12:58;94021.81;;;6.73;100.00
13314;BME280;6725;48.112;11.604;2023-11-21T07:15:23;94015.16;;;6.78;100.00
13314;BME280;6725;48.112;11.604;2023-11-21T07:17:51;94019.00;;;6.80;100.00
13314;BME280;6725;48.112;11.604;2023-11-21T07:20:16;94016.69;;;6.79;100.00
13314;BME280;6725;48.112;11.604;2023-11-21T07:22:42;94015.47;;;6.83;100.00
13314;BME280;6725;48.112;11.604;2023-11-21T07:25:08;94011.19;;;6.82;100.00
13314;BME280;6725;48.112;11.604;2023-11-21T07:27:34;94011.19;;;6.82;100.00
13314;BME280;6725;48.112;11.604;2023-11-21T07:30:01;94006.53;;;6.83;100.00
13314;BME280;6725;48.112;11.604;2023-11-21T07:32:29;94010.44;;;6.82;100.00
13314;BME280;6725;48.112;11.604;2023-11-21T07:34:55;94011.25;;;6.79;100.00
13314;BME280;6725;48.112;11.604;2023-11-21T07:37:22;94013.59;;;6.77;100.00
13314;BME280;6725;48.112;11.604;2023-11-21T07:39:47;94007.03;;;6.78;100.00
13314;BME280;6725;48.112;11.604;2023-11-21T07:42:13;94012.44;;;6.78;100.00
13314;BME280;6725;48.112;11.604;2023-11-21T07:44:38;94018.16;;;6.83;100.00
13314;BME280;6725;48.112;11.604;2023-11-21T07:47:04;94018.47;;;6.89;100.00
13314;BME280;6725;48.112;11.604;2023-11-21T07:49:29;94011.06;;;6.89;100.00
13314;BME280;6725;48.112;11.604;2023-11-21T07:51:55;94014.91;;;6.92;100.00
13314;BME280;6725;48.112;11.604;2023-11-21T07:54:20;94009.34;;;6.99;100.00
13314;BME280;6725;48.112;11.604;2023-11-21T07:56:46;94004.28;;;7.01;100.00
13314;BME280;6725;48.112;11.604;2023-11-21T07:59:12;93994.16;;;7.05;100.00
13314;BME280;6725;48.112;11.604;2023-11-21T08:01:37;94002.16;;;7.12;100.00
13314;BME280;6725;48.112;11.604;2023-11-21T08:04:03;94001.47;;;7.08;100.00
13314;BME280;6725;48.112;11.604;2023-11-21T08:06:29;94007.50;;;7.16;100.00
13314;BME280;6725;48.112;11.604;2023-11-21T08:08:56;94003.94;;;7.22;100.00
13314;BME280;6725;48.112;11.604;2023-11-21T08:11:21;94012.78;;;7.26;100.00
13314;BME280;6725;48.112;11.604;2023-11-21T08:13:47;94008.03;;;7.30;100.00
13314;BME280;6725;48.112;11.604;2023-11-21T08:16:12;94009.81;;;7.40;100.00
13314;BME280;6725;48.112;11.604;2023-11-21T08:18:38;94018.69;;;7.41;100.00
13314;BME280;6725;48.112;11.604;2023-11-21T08:21:05;94004.22;;;7.47;100.00
13314;BME280;6725;48.112;11.604;2023-11-21T08:23:30;94006.47;;;7.52;100.00
13314;BME280;6725;48.112;11.604;2023-11-21T08:25:56;94008.22;;;7.62;100.00
13314;BME280;6725;48.112;11.604;2023-11-21T08:28:21;94000.94;;;7.75;100.00
13314;BME280;6725;48.112;11.604;2023-11-21T08:30:51;94012.78;;;7.65;100.00
13314;BME280;6725;48.112;11.604;2023-11-21T08:33:17;94004.06;;;7.74;100.00
13314;BME280;6725;48.112;11.604;2023-11-21T08:35:43;94012.88;;;7.81;100.00
13314;BME280;6725;48.112;11.604;2023-11-21T08:38:08;94007.75;;;7.83;100.00
13314;BME280;6725;48.112;11.604;2023-11-21T08:40:35;94021.50;;;7.76;100.00
13314;BME280;6725;48.112;11.604;2023-11-21T08:43:00;94032.91;;;7.87;100.00
13314;BME280;6725;48.112;11.604;2023-11-21T08:45:26;94048.75;;;7.92;100.00
13314;BME280;6725;48.112;11.604;2023-11-21T08:47:51;94078.09;;;7.81;100.00
13314;BME280;6725;48.112;11.604;2023-11-21T08:50:17;94099.31;;;7.86;100.00
13314;BME280;6725;48.112;11.604;2023-11-21T08:52:44;94127.19;;;7.90;100.00
13314;BME280;6725;48.112;11.604;2023-11-21T08:55:09;94153.28;;;8.07;100.00
13314;BME280;6725;48.112;11.604;2023-11-21T08:57:40;94192.94;;;8.47;100.00
13314;BME280;6725;48.112;11.604;2023-11-21T09:00:07;94237.44;;;8.76;100.00
13314;BME280;6725;48.112;11.604;2023-11-21T09:02:36;94308.25;;;9.31;100.00
13314;BME280;6725;48.112;11.604;2023-11-21T09:05:05;94396.78;;;9.78;100.00
13314;BME280;6725;48.112;11.604;2023-11-21T09:07:31;94506.13;;;10.59;100.00
13314;BME280;6725;48.112;11.604;2023-11-21T09:09:57;94612.75;;;10.52;100.00
13314;BME280;6725;48.112;11.604;2023-11-21T09:12:22;94676.97;;;10.76;100.00
13314;BME280;6725;48.112;11.604;2023-11-21T09:14:50;94730.91;;;10.29;100.00
13314;BME280;6725;48.112;11.604;2023-11-21T09:17:16;94744.69;;;10.22;100.00
13314;BME280;6725;48.112;11.604;2023-11-21T09:19:41;94757.13;;;10.23;100.00
13314;BME280;6725;48.112;11.604;2023-11-21T09:22:08;94773.56;;;10.20;100.00
13314;BME280;6725;48.112;11.604;2023-11-21T09:24:34;94801.69;;;10.17;100.00
13314;BME280;6725;48.112;11.604;2023-11-21T09:26:59;94812.72;;;10.09;100.00
13314;BME280;6725;48.112;11.604;2023-11-21T09:29:28;94814.72;;;10.05;100.00
13314;BME280;6725;48.112;11.604;2023-11-21T09:31:55;94813.84;;;9.85;100.00
13314;BME280;6725;48.112;11.604;2023-11-21T09:34:21;94816.09;;;9.90;100.00
13314;BME280;6725;48.112;11.604;2023-11-21T09:36:47;94822.47;;;9.80;100.00
13314;BME280;6725;48.112;11.604;2023-11-21T09:39:13;94820.94;;;9.79;100.00
13314;BME280;6725;48.112;11.604;2023-11-21T09:41:50;94820.63;;;10.00;100.00
13314;BME280;6725;48.112;11.604;2023-11-21T09:44:23;94827.16;;;10.06;100.00
13314;BME280;6725;48.112;11.604;2023-11-21T09:46:59;94840.78;;;10.10;100.00
13314;BME280;6725;48.112;11.604;2023-11-21T09:49:25;94830.59;;;10.10;100.00
13314;BME280;6725;48.112;11.604;2023-11-21T09:51:52;94839.72;;;10.00;100.00
13314;BME280;6725;48.112;11.604;2023-11-21T09:54:20;94845.09;;;10.07;100.00
13314;BME280;6725;48.112;11.604;2023-11-21T09:56:46;94844.81;;;9.98;100.00
13314;BME280;6725;48.112;11.604;2023-11-21T09:59:14;94835.34;;;10.06;100.00
13314;BME280;6725;48.112;11.604;2023-11-21T10:01:41;94846.34;;;9.99;100.00
13314;BME280;6725;48.112;11.604;2023-11-21T10:04:10;94842.00;;;10.05;100.00
13314;BME280;6725;48.112;11.604;2023-11-21T10:06:41;94847.81;;;10.07;100.00
13314;BME280;6725;48.112;11.604;2023-11-21T10:09:10;94848.44;;;10.19;100.00
13314;BME280;6725;48.112;11.604;2023-11-21T10:11:40;94843.63;;;10.26;100.00
13314;BME280;6725;48.112;11.604;2023-11-21T10:14:08;94852.22;;;10.25;100.00
13314;BME280;6725;48.112;11.604;2023-11-21T10:16:36;94856.44;;;10.29;100.00
13314;BME280;6725;48.112;11.604;2023-11-21T10:19:05;94853.22;;;10.34;100.00
13314;BME280;6725;48.112;11.604;2023-11-21T10:21:33;94856.41;;;10.56;100.00
13314;BME280;6725;48.112;11.604;2023-11-21T10:23:59;94858.66;;;11.23;100.00
13314;BME280;6725;48.112;11.604;2023-11-21T10:26:26;94871.66;;;11.58;100.00
13314;BME280;6725;48.112;11.604;2023-11-21T10:28:59;94876.00;;;11.36;100.00
13314;BME280;6725;48.112;11.604;2023-11-21T10:31:32;94882.03;;;11.27;100.00
13314;BME280;6725;48.112;11.604;2023-11-21T10:34:17;94871.66;;;11.58;100.00
13314;BME280;6725;48.112;11.604;2023-11-21T10:36:43;94879.78;;;11.42;100.00
13314;BME280;6725;48.112;11.604;2023-11-21T10:39:09;94884.66;;;11.11;100.00
13314;BME280;6725;48.112;11.604;2023-11-21T10:41:38;94889.06;;;11.05;100.00
13314;BME280;6725;48.112;11.604;2023-11-21T10:44:05;94873.72;;;10.92;100.00
13314;BME280;6725;48.112;11.604;2023-11-21T10:46:32;94890.94;;;10.89;100.00
13314;BME280;6725;48.112;11.604;2023-11-21T10:48:59;94885.63;;;10.78;100.00
13314;BME280;6725;48.112;11.604;2023-11-21T10:51:25;94884.94;;;10.74;100.00
13314;BME280;6725;48.112;11.604;2023-11-21T10:53:51;94874.13;;;10.67;100.00
13314;BME280;6725;48.112;11.604;2023-11-21T10:56:18;94873.38;;;10.67;100.00
13314;BME280;6725;48.112;11.604;2023-11-21T10:58:45;94868.19;;;10.49;100.00
13314;BME280;6725;48.112;11.604;2023-11-21T11:01:10;94870.03;;;10.33;100.00
13314;BME280;6725;48.112;11.604;2023-11-21T11:03:39;94869.28;;;10.32;100.00
13314;BME280;6725;48.112;11.604;2023-11-21T11:06:07;94854.84;;;10.55;100.00
13314;BME280;6725;48.112;11.604;2023-11-21T11:08:37;94863.28;;;10.64;100.00
13314;BME280;6725;48.112;11.604;2023-11-21T11:11:02;94858.53;;;10.68;100.00
13314;BME280;6725;48.112;11.604;2023-11-21T11:13:28;94854.59;;;10.69;100.00
13314;BME280;6725;48.112;11.604;2023-11-21T11:16:01;94855.31;;;10.73;100.00
13314;BME280;6725;48.112;11.604;2023-11-21T11:18:32;94860.13;;;10.65;100.00
13314;BME280;6725;48.112;11.604;2023-11-21T11:21:31;94859.94;;;10.76;100.00
13314;BME280;6725;48.112;11.604;2023-11-21T11:24:46;94861.22;;;10.91;100.00
13314;BME280;6725;48.112;11.604;2023-11-21T11:26:57;94867.50;;;11.11;100.00
13314;BME280;6725;48.112;11.604;2023-11-21T11:29:32;94864.78;;;11.11;100.00
13314;BME280;6725;48.112;11.604;2023-11-21T11:32:24;94867.56;;;11.27;100.00
13314;BME280;6725;48.112;11.604;2023-11-21T11:35:26;94871.56;;;11.22;100.00
13314;BME280;6725;48.112;11.604;2023-11-21T11:37:57;94866.69;;;10.91;100.00
13314;BME280;6725;48.112;11.604;2023-11-21T11:40:37;94858.28;;;10.82;100.00
13314;BME280;6725;48.112;11.604;2023-11-21T11:43:03;94851.34;;;10.77;100.00
13314;BME280;6725;48.112;11.604;2023-11-21T11:45:33;94859.34;;;10.65;100.00
13314;BME280;6725;48.112;11.604;2023-11-21T11:48:00;94865.31;;;10.60;100.00
13314;BME280;6725;48.112;11.604;2023-11-21T11:50:25;94860.38;;;10.51;100.00
13314;BME280;6725;48.112;11.604;2023-11-21T11:52:55;94858.06;;;10.50;100.00
13314;BME280;6725;48.112;11.604;2023-11-21T11:55:36;94851.66;;;10.37;100.00
13314;BME280;6725;48.112;11.604;2023-11-21T11:58:05;94849.38;;;10.32;100.00
13314;BME280;6725;48.112;11.604;2023-11-21T12:00:35;94841.38;;;10.44;100.00
13314;BME280;6725;48.112;11.604;2023-11-21T12:03:04;94845.47;;;10.56;100.00
13314;BME280;6725;48.112;11.604;2023-11-21T12:05:31;94843.56;;;10.53;100.00
13314;BME280;6725;48.112;11.604;2023-11-21T12:08:09;94849.97;;;10.66;100.00
13314;BME280;6725;48.112;11.604;2023-11-21T12:10:37;94849.50;;;10.71;100.00
13314;BME280;6725;48.112;11.604;2023-11-21T12:13:06;94847.53;;;10.71;100.00
13314;BME280;6725;48.112;11.604;2023-11-21T12:15:37;94855.22;;;10.57;100.00
13314;BME280;6725;48.112;11.604;2023-11-21T12:18:04;94844.34;;;10.53;100.00
13314;BME280;6725;48.112;11.604;2023-11-21T12:20:30;94845.94;;;10.51;100.00
13314;BME280;6725;48.112;11.604;2023-11-21T12:22:58;94843.69;;;10.46;100.00
13314;BME280;6725;48.112;11.604;2023-11-21T12:25:28;94843.69;;;10.46;100.00
13314;BME280;6725;48.112;11.604;2023-11-21T12:28:01;94842.50;;;10.47;100.00
13314;BME280;6725;48.112;11.604;2023-11-21T12:30:29;94847.22;;;10.46;100.00
13314;BME280;6725;48.112;11.604;2023-11-21T12:33:00;94841.88;;;10.39;100.00
13314;BME280;6725;48.112;11.604;2023-11-21T12:35:30;94843.41;;;10.40;100.00
13314;BME280;6725;48.112;11.604;2023-11-21T12:37:56;94835.63;;;10.39;100.00
13314;BME280;6725;48.112;11.604;2023-11-21T12:40:24;94840.59;;;10.44;100.00
13314;BME280;6725;48.112;11.604;2023-11-21T12:42:54;94842.38;;;10.54;100.00
13314;BME280;6725;48.112;11.604;2023-11-21T12:45:24;94842.16;;;10.68;100.00
13314;BME280;6725;48.112;11.604;2023-11-21T12:47:56;94853.88;;;10.65;100.00
13314;BME280;6725;48.112;11.604;2023-11-21T12:50:25;94857.00;;;10.67;100.00
13314;BME280;6725;48.112;11.604;2023-11-21T12:53:01;94858.69;;;10.80;100.00
13314;BME280;6725;48.112;11.604;2023-11-21T12:55:32;94858.03;;;10.96;100.00
13314;BME280;6725;48.112;11.604;2023-11-21T12:58:01;94863.63;;;10.89;100.00